sensor_id;sensor_type;location;lat;lon;timestamp;pressure;altitude;pressure_sealevel;temperature;humidity
73105;BME280;61296;50.526;30.792;2023-04-30T00:13:27;99479.06;;;8.00;49.04
73105;BME280;61296;50.526;30.792;2023-04-30T00:28:46;99509.41;;;8.10;49.37
73105;BME280;61296;50.526;30.792;2023-04-30T00:44:06;99442.28;;;8.01;49.37
73105;BME280;61296;50.526;30.792;2023-04-30T00:59:25;99409.78;;;7.80;50.14
73105;BME280;61296;50.526;30.792;2023-04-30T01:30:21;99364.66;;;7.35;51.50
73105;BME280;61296;50.526;30.792;2023-04-30T01:45:46;99439.13;;;7.79;52.49
73105;BME280;61296;50.526;30.792;2023-04-30T02:01:08;99356.94;;;7.21;54.02
73105;BME280;61296;50.526;30.792;2023-04-30T02:16:43;99416.38;;;7.40;54.74
73105;BME280;61296;50.526;30.792;2023-04-30T02:32:04;99298.34;;;6.36;56.00
73105;BME280;61296;50.526;30.792;2023-04-30T02:47:24;99384.28;;;6.71;57.56
73105;BME280;61296;50.526;30.792;2023-04-30T03:02:44;99403.84;;;6.73;59.20
73105;BME280;61296;50.526;30.792;2023-04-30T03:18:03;99285.13;;;5.79;60.05
73105;BME280;61296;50.526;30.792;2023-04-30T03:33:22;99374.19;;;6.43;61.21
73105;BME280;61296;50.526;30.792;2023-04-30T03:48:41;99366.25;;;6.22;62.28
73105;BME280;61296;50.526;30.792;2023-04-30T04:04:02;99294.06;;;5.92;62.78
73105;BME280;61296;50.526;30.792;2023-04-30T04:19:22;99395.28;;;6.74;62.55
73105;BME280;61296;50.526;30.792;2023-04-30T04:34:41;99338.00;;;6.62;62.02
73105;BME280;61296;50.526;30.792;2023-04-30T04:50:01;99370.09;;;7.16;61.38
73105;BME280;61296;50.526;30.792;2023-04-30T05:05:21;99370.03;;;7.67;60.69
73105;BME280;61296;50.526;30.792;2023-04-30T05:20:41;99243.13;;;6.98;59.51
73105;BME280;61296;50.526;30.792;2023-04-30T05:36:00;99298.72;;;7.60;58.06
73105;BME280;61296;50.526;30.792;2023-04-30T05:51:19;99267.09;;;7.81;51.94
73105;BME280;61296;50.526;30.792;2023-04-30T06:06:39;99242.47;;;7.81;50.96
73105;BME280;61296;50.526;30.792;2023-04-30T06:21:59;99341.81;;;8.70;48.43
73105;BME280;61296;50.526;30.792;2023-04-30T06:37:20;99291.34;;;8.48;48.66
73105;BME280;61296;50.526;30.792;2023-04-30T06:52:40;99254.56;;;8.49;47.30
73105;BME280;61296;50.526;30.792;2023-04-30T07:08:06;99196.19;;;8.45;46.62
73105;BME280;61296;50.526;30.792;2023-04-30T07:23:26;99273.34;;;9.30;46.30
73105;BME280;61296;50.526;30.792;2023-04-30T07:38:46;99261.53;;;9.60;44.59
73105;BME280;61296;50.526;30.792;2023-04-30T07:54:06;99233.38;;;9.33;42.98
73105;BME280;61296;50.526;30.792;2023-04-30T08:09:25;99121.63;;;9.30;41.45
73105;BME280;61296;50.526;30.792;2023-04-30T08:24:44;99131.75;;;9.25;41.13
73105;BME280;61296;50.526;30.792;2023-04-30T08:40:04;99089.53;;;8.96;39.61
73105;BME280;61296;50.526;30.792;2023-04-30T08:55:27;99123.16;;;9.27;39.24
73105;BME280;61296;50.526;30.792;2023-04-30T09:10:46;99237.00;;;10.18;38.09
73105;BME280;61296;50.526;30.792;2023-04-30T09:26:05;99119.22;;;9.65;38.21
73105;BME280;61296;50.526;30.792;2023-04-30T09:41:28;99123.59;;;9.70;36.92
73105;BME280;61296;50.526;30.792;2023-04-30T09:56:47;99126.84;;;9.90;37.38
73105;BME280;61296;50.526;30.792;2023-04-30T10:12:13;99193.44;;;10.75;39.67
73105;BME280;61296;50.526;30.792;2023-04-30T10:27:33;99040.50;;;9.83;36.77
73105;BME280;61296;50.526;30.792;2023-04-30T10:42:53;99114.53;;;10.86;37.29
73105;BME280;61296;50.526;30.792;2023-04-30T10:58:45;99080.78;;;11.11;36.52
73105;BME280;61296;50.526;30.792;2023-04-30T11:14:05;99118.19;;;11.33;36.34
73105;BME280;61296;50.526;30.792;2023-04-30T11:29:24;99104.84;;;11.42;36.86
73105;BME280;61296;50.526;30.792;2023-04-30T11:44:44;99069.31;;;10.91;36.31
73105;BME280;61296;50.526;30.792;2023-04-30T12:00:14;99038.66;;;10.75;36.93
73105;BME280;61296;50.526;30.792;2023-04-30T12:15:34;99058.28;;;10.80;36.19
73105;BME280;61296;50.526;30.792;2023-04-30T12:30:53;99046.56;;;11.12;37.88
73105;BME280;61296;50.526;30.792;2023-04-30T12:46:24;99063.53;;;11.42;36.80
73105;BME280;61296;50.526;30.792;2023-04-30T13:01:47;98956.16;;;10.99;36.99
73105;BME280;61296;50.526;30.792;2023-04-30T13:17:13;99039.13;;;11.23;36.88
73105;BME280;61296;50.526;30.792;2023-04-30T13:32:49;99010.44;;;11.42;36.13
73105;BME280;61296;50.526;30.792;2023-04-30T13:48:10;98945.47;;;11.76;36.73
73105;BME280;61296;50.526;30.792;2023-04-30T14:03:30;98957.25;;;11.95;36.11
73105;BME280;61296;50.526;30.792;2023-04-30T14:19:00;99078.03;;;12.35;35.98
73105;BME280;61296;50.526;30.792;2023-04-30T14:34:20;99107.59;;;12.35;35.73
73105;BME280;61296;50.526;30.792;2023-04-30T14:49:42;99009.63;;;11.55;36.20
73105;BME280;61296;50.526;30.792;2023-04-30T15:05:03;99072.19;;;12.05;36.59
73105;BME280;61296;50.526;30.792;2023-04-30T15:20:26;99052.13;;;11.76;37.68
73105;BME280;61296;50.526;30.792;2023-04-30T15:35:46;98989.19;;;11.49;38.20
73105;BME280;61296;50.526;30.792;2023-04-30T15:51:05;99012.78;;;11.61;38.51
73105;BME280;61296;50.526;30.792;2023-04-30T16:06:28;99031.28;;;11.53;39.34
73105;BME280;61296;50.526;30.792;2023-04-30T16:21:50;99121.78;;;12.16;38.67
73105;BME280;61296;50.526;30.792;2023-04-30T16:37:10;99029.72;;;11.38;39.08
73105;BME280;61296;50.526;30.792;2023-04-30T16:52:32;99070.63;;;11.50;39.36
73105;BME280;61296;50.526;30.792;2023-04-30T17:07:53;99063.53;;;11.28;39.84
73105;BME280;61296;50.526;30.792;2023-04-30T17:23:12;99055.63;;;11.05;40.23
73105;BME280;61296;50.526;30.792;2023-04-30T17:38:32;99147.72;;;11.50;40.86
73105;BME280;61296;50.526;30.792;2023-04-30T17:53:51;99078.34;;;10.77;40.96
73105;BME280;61296;50.526;30.792;2023-04-30T18:09:12;99077.84;;;10.61;41.71
73105;BME280;61296;50.526;30.792;2023-04-30T18:24:35;99112.47;;;10.73;41.59
73105;BME280;61296;50.526;30.792;2023-04-30T18:40:06;99087.22;;;10.42;42.00
73105;BME280;61296;50.526;30.792;2023-04-30T18:55:26;99060.28;;;10.07;43.18
73105;BME280;61296;50.526;30.792;2023-04-30T19:10:47;99049.22;;;9.93;43.78
73105;BME280;61296;50.526;30.792;2023-04-30T19:26:07;99077.47;;;9.93;44.18
73105;BME280;61296;50.526;30.792;2023-04-30T19:41:27;99133.06;;;10.31;44.56
73105;BME280;61296;50.526;30.792;2023-04-30T19:56:48;99134.53;;;10.18;44.34
73105;BME280;61296;50.526;30.792;2023-04-30T20:12:10;99050.41;;;9.47;44.40
73105;BME280;61296;50.526;30.792;2023-04-30T20:27:30;99138.22;;;9.88;44.93
73105;BME280;61296;50.526;30.792;2023-04-30T20:42:50;99048.06;;;9.46;44.31
73105;BME280;61296;50.526;30.792;2023-04-30T20:58:09;99102.50;;;9.81;44.98
73105;BME280;61296;50.526;30.792;2023-04-30T21:13:29;99052.66;;;9.31;45.44
73105;BME280;61296;50.526;30.792;2023-04-30T21:28:49;99098.16;;;9.36;45.92
73105;BME280;61296;50.526;30.792;2023-04-30T21:44:11;99094.81;;;9.16;46.85
73105;BME280;61296;50.526;30.792;2023-04-30T21:59:32;99157.44;;;9.44;47.22
73105;BME280;61296;50.526;30.792;2023-04-30T22:14:56;99029.69;;;8.35;47.71
73105;BME280;61296;50.526;30.792;2023-04-30T22:30:16;99079.59;;;8.51;48.05
73105;BME280;61296;50.526;30.792;2023-04-30T22:45:38;99124.13;;;8.75;48.12
73105;BME280;61296;50.526;30.792;2023-04-30T23:00:58;99030.66;;;7.93;47.94
73105;BME280;61296;50.526;30.792;2023-04-30T23:16:18;99095.94;;;7.91;49.29
73105;BME280;61296;50.526;30.792;2023-04-30T23:31:37;99100.78;;;8.01;48.55
73105;BME280;61296;50.526;30.792;2023-04-30T23:46:57;99045.50;;;7.66;48.56
